sensor_id;sensor_type;location;lat;lon;timestamp;P1;durP1;ratioP1;P2;durP2;ratioP2
5121;SDS011;2563;52.242;7.956;2024-03-07T00:01:44;41.93;;;17.83;;
5121;SDS011;2563;52.242;7.956;2024-03-07T00:04:10;44.33;;;19.47;;
5121;SDS011;2563;52.242;7.956;2024-03-07T00:06:35;43.70;;;17.47;;
5121;SDS011;2563;52.242;7.956;2024-03-07T00:09:00;47.70;;;18.60;;
5121;SDS011;2563;52.242;7.956;2024-03-07T00:11:27;52.00;;;19.20;;
5121;SDS011;2563;52.242;7.956;2024-03-07T00:13:53;41.90;;;18.53;;
5121;SDS011;2563;52.242;7.956;2024-03-07T00:16:19;48.67;;;18.50;;
5121;SDS011;2563;52.242;7.956;2024-03-07T00:18:45;46.37;;;18.97;;
5121;SDS011;2563;52.242;7.956;2024-03-07T00:21:10;46.13;;;17.77;;
5121;SDS011;2563;52.242;7.956;2024-03-07T00:23:36;43.93;;;18.67;;
5121;SDS011;2563;52.242;7.956;2024-03-07T00:26:01;40.00;;;16.50;;
5121;SDS011;2563;52.242;7.956;2024-03-07T00:28:27;48.90;;;17.90;;
5121;SDS011;2563;52.242;7.956;2024-03-07T00:30:57;36.70;;;15.80;;
5121;SDS011;2563;52.242;7.956;2024-03-07T00:33:23;40.20;;;16.80;;
5121;SDS011;2563;52.242;7.956;2024-03-07T00:35:48;38.00;;;16.27;;
5121;SDS011;2563;52.242;7.956;2024-03-07T00:38:14;39.03;;;17.90;;
5121;SDS011;2563;52.242;7.956;2024-03-07T00:40:40;45.70;;;17.47;;
5121;SDS011;2563;52.242;7.956;2024-03-07T00:43:05;41.10;;;16.57;;
5121;SDS011;2563;52.242;7.956;2024-03-07T00:45:31;44.00;;;16.43;;
5121;SDS011;2563;52.242;7.956;2024-03-07T00:47:57;59.73;;;17.87;;
5121;SDS011;2563;52.242;7.956;2024-03-07T00:50:23;42.13;;;17.67;;
5121;SDS011;2563;52.242;7.956;2024-03-07T00:52:49;41.10;;;15.60;;
5121;SDS011;2563;52.242;7.956;2024-03-07T00:55:15;41.80;;;17.57;;
5121;SDS011;2563;52.242;7.956;2024-03-07T00:57:40;38.10;;;15.97;;
5121;SDS011;2563;52.242;7.956;2024-03-07T01:00:06;41.90;;;17.10;;
5121;SDS011;2563;52.242;7.956;2024-03-07T01:02:39;33.30;;;14.77;;
5121;SDS011;2563;52.242;7.956;2024-03-07T01:05:12;36.83;;;17.80;;
5121;SDS011;2563;52.242;7.956;2024-03-07T01:07:40;41.00;;;17.17;;
5121;SDS011;2563;52.242;7.956;2024-03-07T01:10:06;44.33;;;17.00;;
5121;SDS011;2563;52.242;7.956;2024-03-07T01:12:34;38.30;;;15.37;;
5121;SDS011;2563;52.242;7.956;2024-03-07T01:15:00;44.30;;;17.90;;
5121;SDS011;2563;52.242;7.956;2024-03-07T01:17:25;41.20;;;15.40;;
5121;SDS011;2563;52.242;7.956;2024-03-07T01:19:51;36.17;;;15.00;;
5121;SDS011;2563;52.242;7.956;2024-03-07T01:22:17;40.63;;;17.30;;
5121;SDS011;2563;52.242;7.956;2024-03-07T01:24:42;36.73;;;15.20;;
5121;SDS011;2563;52.242;7.956;2024-03-07T01:27:08;34.03;;;14.20;;
5121;SDS011;2563;52.242;7.956;2024-03-07T01:29:34;36.67;;;16.20;;
5121;SDS011;2563;52.242;7.956;2024-03-07T01:31:59;40.07;;;16.53;;
5121;SDS011;2563;52.242;7.956;2024-03-07T01:34:25;38.20;;;14.47;;
5121;SDS011;2563;52.242;7.956;2024-03-07T01:36:50;39.07;;;14.70;;
5121;SDS011;2563;52.242;7.956;2024-03-07T01:39:15;41.83;;;15.83;;
5121;SDS011;2563;52.242;7.956;2024-03-07T01:41:41;39.90;;;15.43;;
5121;SDS011;2563;52.242;7.956;2024-03-07T01:44:06;42.10;;;16.67;;
5121;SDS011;2563;52.242;7.956;2024-03-07T01:46:32;32.57;;;15.00;;
5121;SDS011;2563;52.242;7.956;2024-03-07T01:48:57;35.70;;;15.37;;
5121;SDS011;2563;52.242;7.956;2024-03-07T01:51:24;38.07;;;15.87;;
5121;SDS011;2563;52.242;7.956;2024-03-07T01:53:50;39.50;;;15.67;;
5121;SDS011;2563;52.242;7.956;2024-03-07T01:56:16;36.43;;;13.90;;
5121;SDS011;2563;52.242;7.956;2024-03-07T01:58:43;45.13;;;14.47;;
5121;SDS011;2563;52.242;7.956;2024-03-07T02:01:12;39.57;;;14.07;;
5121;SDS011;2563;52.242;7.956;2024-03-07T02:03:39;39.60;;;15.47;;
5121;SDS011;2563;52.242;7.956;2024-03-07T02:06:05;39.90;;;15.50;;
5121;SDS011;2563;52.242;7.956;2024-03-07T02:08:30;31.97;;;15.03;;
5121;SDS011;2563;52.242;7.956;2024-03-07T02:10:57;42.43;;;16.20;;
5121;SDS011;2563;52.242;7.956;2024-03-07T02:13:23;36.27;;;13.70;;
5121;SDS011;2563;52.242;7.956;2024-03-07T02:15:48;36.53;;;14.77;;
5121;SDS011;2563;52.242;7.956;2024-03-07T02:18:13;29.90;;;13.23;;
5121;SDS011;2563;52.242;7.956;2024-03-07T02:20:45;38.83;;;16.50;;
5121;SDS011;2563;52.242;7.956;2024-03-07T02:23:13;42.27;;;15.40;;
5121;SDS011;2563;52.242;7.956;2024-03-07T02:25:39;39.23;;;15.30;;
5121;SDS011;2563;52.242;7.956;2024-03-07T02:28:05;41.30;;;16.30;;
5121;SDS011;2563;52.242;7.956;2024-03-07T02:30:30;34.53;;;14.83;;
5121;SDS011;2563;52.242;7.956;2024-03-07T02:32:59;34.50;;;14.40;;
5121;SDS011;2563;52.242;7.956;2024-03-07T02:35:32;36.60;;;14.40;;
5121;SDS011;2563;52.242;7.956;2024-03-07T02:37:59;35.83;;;15.27;;
5121;SDS011;2563;52.242;7.956;2024-03-07T02:40:24;39.27;;;16.23;;
5121;SDS011;2563;52.242;7.956;2024-03-07T02:42:49;34.97;;;14.57;;
5121;SDS011;2563;52.242;7.956;2024-03-07T02:45:15;41.43;;;14.60;;
5121;SDS011;2563;52.242;7.956;2024-03-07T02:47:41;38.77;;;15.63;;
5121;SDS011;2563;52.242;7.956;2024-03-07T02:50:08;35.47;;;14.13;;
5121;SDS011;2563;52.242;7.956;2024-03-07T02:52:34;35.63;;;14.57;;
5121;SDS011;2563;52.242;7.956;2024-03-07T02:54:59;34.97;;;13.90;;
5121;SDS011;2563;52.242;7.956;2024-03-07T02:57:25;36.80;;;14.40;;
5121;SDS011;2563;52.242;7.956;2024-03-07T02:59:50;36.47;;;13.70;;
5121;SDS011;2563;52.242;7.956;2024-03-07T03:02:16;38.43;;;14.00;;
5121;SDS011;2563;52.242;7.956;2024-03-07T03:04:41;38.03;;;14.30;;
5121;SDS011;2563;52.242;7.956;2024-03-07T03:07:07;38.33;;;16.10;;
5121;SDS011;2563;52.242;7.956;2024-03-07T03:09:33;41.43;;;15.33;;
5121;SDS011;2563;52.242;7.956;2024-03-07T03:11:58;38.60;;;14.20;;
5121;SDS011;2563;52.242;7.956;2024-03-07T03:14:24;42.60;;;15.03;;
5121;SDS011;2563;52.242;7.956;2024-03-07T03:16:49;33.63;;;14.00;;
5121;SDS011;2563;52.242;7.956;2024-03-07T03:19:15;34.47;;;14.17;;
5121;SDS011;2563;52.242;7.956;2024-03-07T03:21:40;32.50;;;14.13;;
5121;SDS011;2563;52.242;7.956;2024-03-07T03:24:06;40.37;;;15.00;;
5121;SDS011;2563;52.242;7.956;2024-03-07T03:26:32;37.93;;;14.20;;
5121;SDS011;2563;52.242;7.956;2024-03-07T03:28:58;36.83;;;14.03;;
5121;SDS011;2563;52.242;7.956;2024-03-07T03:31:23;41.87;;;15.87;;
5121;SDS011;2563;52.242;7.956;2024-03-07T03:33:49;35.87;;;14.37;;
5121;SDS011;2563;52.242;7.956;2024-03-07T03:36:15;32.80;;;12.60;;
5121;SDS011;2563;52.242;7.956;2024-03-07T03:38:41;35.37;;;14.00;;
5121;SDS011;2563;52.242;7.956;2024-03-07T03:41:06;31.80;;;13.47;;
5121;SDS011;2563;52.242;7.956;2024-03-07T03:43:32;34.83;;;13.90;;
5121;SDS011;2563;52.242;7.956;2024-03-07T03:45:57;34.57;;;12.70;;
5121;SDS011;2563;52.242;7.956;2024-03-07T03:48:22;34.30;;;13.73;;
5121;SDS011;2563;52.242;7.956;2024-03-07T03:50:48;33.33;;;13.70;;
5121;SDS011;2563;52.242;7.956;2024-03-07T03:53:13;29.13;;;13.10;;
5121;SDS011;2563;52.242;7.956;2024-03-07T03:55:39;33.07;;;13.67;;
5121;SDS011;2563;52.242;7.956;2024-03-07T03:58:04;29.93;;;12.83;;
5121;SDS011;2563;52.242;7.956;2024-03-07T04:00:32;32.20;;;13.10;;
5121;SDS011;2563;52.242;7.956;2024-03-07T04:02:58;34.50;;;12.87;;
5121;SDS011;2563;52.242;7.956;2024-03-07T04:05:24;30.00;;;12.90;;
5121;SDS011;2563;52.242;7.956;2024-03-07T04:07:49;33.37;;;12.73;;
5121;SDS011;2563;52.242;7.956;2024-03-07T04:10:15;30.37;;;12.37;;
5121;SDS011;2563;52.242;7.956;2024-03-07T04:12:43;30.80;;;13.03;;
5121;SDS011;2563;52.242;7.956;2024-03-07T04:15:09;34.73;;;13.97;;
5121;SDS011;2563;52.242;7.956;2024-03-07T04:17:36;32.33;;;12.87;;
5121;SDS011;2563;52.242;7.956;2024-03-07T04:20:02;28.57;;;13.30;;
5121;SDS011;2563;52.242;7.956;2024-03-07T04:22:32;37.90;;;12.97;;
5121;SDS011;2563;52.242;7.956;2024-03-07T04:24:59;34.27;;;13.37;;
5121;SDS011;2563;52.242;7.956;2024-03-07T04:27:24;37.43;;;14.20;;
5121;SDS011;2563;52.242;7.956;2024-03-07T04:29:51;36.93;;;13.97;;
5121;SDS011;2563;52.242;7.956;2024-03-07T04:32:16;32.87;;;13.17;;
5121;SDS011;2563;52.242;7.956;2024-03-07T04:34:42;30.33;;;12.97;;
5121;SDS011;2563;52.242;7.956;2024-03-07T04:37:11;34.60;;;14.00;;
5121;SDS011;2563;52.242;7.956;2024-03-07T04:39:37;34.57;;;13.80;;
5121;SDS011;2563;52.242;7.956;2024-03-07T04:42:03;32.93;;;13.70;;
5121;SDS011;2563;52.242;7.956;2024-03-07T04:44:31;32.40;;;12.97;;
5121;SDS011;2563;52.242;7.956;2024-03-07T04:46:58;37.30;;;13.90;;
5121;SDS011;2563;52.242;7.956;2024-03-07T04:49:25;34.83;;;12.97;;
5121;SDS011;2563;52.242;7.956;2024-03-07T04:51:51;34.97;;;14.03;;
5121;SDS011;2563;52.242;7.956;2024-03-07T04:54:20;34.87;;;13.50;;
5121;SDS011;2563;52.242;7.956;2024-03-07T04:56:47;32.77;;;11.90;;
5121;SDS011;2563;52.242;7.956;2024-03-07T04:59:14;40.03;;;13.43;;
5121;SDS011;2563;52.242;7.956;2024-03-07T05:01:41;33.47;;;13.23;;
5121;SDS011;2563;52.242;7.956;2024-03-07T05:04:06;28.87;;;11.20;;
5121;SDS011;2563;52.242;7.956;2024-03-07T05:06:32;36.47;;;13.27;;
5121;SDS011;2563;52.242;7.956;2024-03-07T05:09:02;35.80;;;14.70;;
5121;SDS011;2563;52.242;7.956;2024-03-07T05:11:31;32.40;;;12.77;;
5121;SDS011;2563;52.242;7.956;2024-03-07T05:13:58;30.43;;;13.50;;
5121;SDS011;2563;52.242;7.956;2024-03-07T05:16:30;34.13;;;13.20;;
5121;SDS011;2563;52.242;7.956;2024-03-07T05:18:59;30.77;;;12.33;;
5121;SDS011;2563;52.242;7.956;2024-03-07T05:21:27;31.50;;;12.43;;
5121;SDS011;2563;52.242;7.956;2024-03-07T05:23:59;35.50;;;12.70;;
5121;SDS011;2563;52.242;7.956;2024-03-07T05:26:25;31.93;;;12.60;;
5121;SDS011;2563;52.242;7.956;2024-03-07T05:28:51;27.53;;;12.00;;
5121;SDS011;2563;52.242;7.956;2024-03-07T05:31:17;35.97;;;13.23;;
5121;SDS011;2563;52.242;7.956;2024-03-07T05:33:43;27.87;;;11.70;;
5121;SDS011;2563;52.242;7.956;2024-03-07T05:36:09;39.10;;;14.00;;
5121;SDS011;2563;52.242;7.956;2024-03-07T05:38:43;32.87;;;14.03;;
5121;SDS011;2563;52.242;7.956;2024-03-07T05:41:10;35.00;;;13.53;;
5121;SDS011;2563;52.242;7.956;2024-03-07T05:43:37;38.90;;;13.60;;
5121;SDS011;2563;52.242;7.956;2024-03-07T05:46:03;38.27;;;14.87;;
5121;SDS011;2563;52.242;7.956;2024-03-07T05:48:29;37.97;;;14.37;;
5121;SDS011;2563;52.242;7.956;2024-03-07T05:50:54;31.00;;;12.33;;
5121;SDS011;2563;52.242;7.956;2024-03-07T05:53:19;35.40;;;14.40;;
5121;SDS011;2563;52.242;7.956;2024-03-07T05:55:45;33.50;;;13.20;;
5121;SDS011;2563;52.242;7.956;2024-03-07T05:58:11;25.90;;;11.97;;
5121;SDS011;2563;52.242;7.956;2024-03-07T06:00:36;34.83;;;13.03;;
5121;SDS011;2563;52.242;7.956;2024-03-07T06:03:03;32.97;;;11.87;;
5121;SDS011;2563;52.242;7.956;2024-03-07T06:05:30;37.67;;;13.23;;
5121;SDS011;2563;52.242;7.956;2024-03-07T06:07:55;37.80;;;13.80;;
5121;SDS011;2563;52.242;7.956;2024-03-07T06:10:21;31.43;;;12.27;;
5121;SDS011;2563;52.242;7.956;2024-03-07T06:12:50;28.80;;;12.53;;
5121;SDS011;2563;52.242;7.956;2024-03-07T06:15:15;29.43;;;12.27;;
5121;SDS011;2563;52.242;7.956;2024-03-07T06:17:41;30.80;;;12.87;;
5121;SDS011;2563;52.242;7.956;2024-03-07T06:20:08;27.10;;;11.80;;
5121;SDS011;2563;52.242;7.956;2024-03-07T06:22:47;27.87;;;11.77;;
5121;SDS011;2563;52.242;7.956;2024-03-07T06:25:14;35.10;;;12.10;;
5121;SDS011;2563;52.242;7.956;2024-03-07T06:27:45;28.77;;;13.80;;
5121;SDS011;2563;52.242;7.956;2024-03-07T06:30:14;31.93;;;13.30;;
5121;SDS011;2563;52.242;7.956;2024-03-07T06:32:43;28.97;;;12.60;;
5121;SDS011;2563;52.242;7.956;2024-03-07T06:35:09;30.43;;;12.60;;
5121;SDS011;2563;52.242;7.956;2024-03-07T06:37:35;31.17;;;11.50;;
5121;SDS011;2563;52.242;7.956;2024-03-07T06:40:00;32.53;;;12.20;;
5121;SDS011;2563;52.242;7.956;2024-03-07T06:42:30;38.20;;;13.87;;
5121;SDS011;2563;52.242;7.956;2024-03-07T06:44:57;33.97;;;13.40;;
5121;SDS011;2563;52.242;7.956;2024-03-07T06:47:23;32.20;;;12.27;;
5121;SDS011;2563;52.242;7.956;2024-03-07T06:49:48;30.37;;;13.17;;
5121;SDS011;2563;52.242;7.956;2024-03-07T06:52:14;29.70;;;11.90;;
5121;SDS011;2563;52.242;7.956;2024-03-07T06:54:40;25.40;;;11.07;;
5121;SDS011;2563;52.242;7.956;2024-03-07T06:57:05;25.47;;;11.67;;
5121;SDS011;2563;52.242;7.956;2024-03-07T06:59:31;27.87;;;12.23;;
5121;SDS011;2563;52.242;7.956;2024-03-07T07:01:56;30.40;;;11.63;;
5121;SDS011;2563;52.242;7.956;2024-03-07T07:04:23;27.47;;;11.87;;
5121;SDS011;2563;52.242;7.956;2024-03-07T07:06:50;31.30;;;12.40;;
5121;SDS011;2563;52.242;7.956;2024-03-07T07:09:15;29.93;;;12.37;;
5121;SDS011;2563;52.242;7.956;2024-03-07T07:11:43;26.23;;;11.57;;
5121;SDS011;2563;52.242;7.956;2024-03-07T07:14:10;27.13;;;12.20;;
5121;SDS011;2563;52.242;7.956;2024-03-07T07:16:36;35.70;;;13.60;;
5121;SDS011;2563;52.242;7.956;2024-03-07T07:19:06;29.90;;;13.20;;
5121;SDS011;2563;52.242;7.956;2024-03-07T07:21:32;28.27;;;12.30;;
5121;SDS011;2563;52.242;7.956;2024-03-07T07:23:57;34.77;;;13.93;;
5121;SDS011;2563;52.242;7.956;2024-03-07T07:26:23;33.53;;;13.03;;
5121;SDS011;2563;52.242;7.956;2024-03-07T07:28:48;36.07;;;14.67;;
5121;SDS011;2563;52.242;7.956;2024-03-07T07:31:13;38.10;;;16.67;;
5121;SDS011;2563;52.242;7.956;2024-03-07T07:33:39;38.30;;;14.73;;
5121;SDS011;2563;52.242;7.956;2024-03-07T07:36:04;41.70;;;14.40;;
5121;SDS011;2563;52.242;7.956;2024-03-07T07:38:30;42.07;;;15.97;;
5121;SDS011;2563;52.242;7.956;2024-03-07T07:40:56;36.03;;;14.00;;
5121;SDS011;2563;52.242;7.956;2024-03-07T07:43:22;36.43;;;15.03;;
5121;SDS011;2563;52.242;7.956;2024-03-07T07:45:48;38.77;;;15.10;;
5121;SDS011;2563;52.242;7.956;2024-03-07T07:48:13;38.83;;;14.50;;
5121;SDS011;2563;52.242;7.956;2024-03-07T07:50:41;40.00;;;13.90;;
5121;SDS011;2563;52.242;7.956;2024-03-07T07:53:06;43.87;;;15.47;;
5121;SDS011;2563;52.242;7.956;2024-03-07T07:55:34;38.97;;;15.03;;
5121;SDS011;2563;52.242;7.956;2024-03-07T07:58:00;40.43;;;16.13;;
5121;SDS011;2563;52.242;7.956;2024-03-07T08:00:29;39.37;;;14.63;;
5121;SDS011;2563;52.242;7.956;2024-03-07T08:02:56;45.03;;;16.57;;
5121;SDS011;2563;52.242;7.956;2024-03-07T08:05:30;46.83;;;16.50;;
5121;SDS011;2563;52.242;7.956;2024-03-07T08:08:04;44.67;;;15.37;;
5121;SDS011;2563;52.242;7.956;2024-03-07T08:10:32;43.73;;;17.60;;
5121;SDS011;2563;52.242;7.956;2024-03-07T08:13:00;53.33;;;18.60;;
5121;SDS011;2563;52.242;7.956;2024-03-07T08:15:28;51.27;;;19.27;;
5121;SDS011;2563;52.242;7.956;2024-03-07T08:17:55;46.90;;;17.10;;
5121;SDS011;2563;52.242;7.956;2024-03-07T08:20:21;60.87;;;17.70;;
5121;SDS011;2563;52.242;7.956;2024-03-07T08:22:48;41.53;;;14.67;;
5121;SDS011;2563;52.242;7.956;2024-03-07T08:25:18;43.40;;;16.57;;
5121;SDS011;2563;52.242;7.956;2024-03-07T08:27:48;46.50;;;17.57;;
5121;SDS011;2563;52.242;7.956;2024-03-07T08:30:15;45.53;;;15.43;;
5121;SDS011;2563;52.242;7.956;2024-03-07T08:32:44;41.60;;;16.27;;
5121;SDS011;2563;52.242;7.956;2024-03-07T08:35:11;42.43;;;16.70;;
5121;SDS011;2563;52.242;7.956;2024-03-07T08:37:41;41.30;;;16.60;;
5121;SDS011;2563;52.242;7.956;2024-03-07T08:40:07;40.00;;;15.97;;
5121;SDS011;2563;52.242;7.956;2024-03-07T08:42:44;40.77;;;15.07;;
5121;SDS011;2563;52.242;7.956;2024-03-07T08:45:11;33.13;;;14.20;;
5121;SDS011;2563;52.242;7.956;2024-03-07T08:47:37;33.50;;;13.73;;
5121;SDS011;2563;52.242;7.956;2024-03-07T08:50:03;33.20;;;14.10;;
5121;SDS011;2563;52.242;7.956;2024-03-07T08:52:33;38.57;;;14.10;;
5121;SDS011;2563;52.242;7.956;2024-03-07T08:55:02;44.53;;;15.37;;
5121;SDS011;2563;52.242;7.956;2024-03-07T08:57:28;43.27;;;15.67;;
5121;SDS011;2563;52.242;7.956;2024-03-07T08:59:54;42.20;;;15.03;;
5121;SDS011;2563;52.242;7.956;2024-03-07T09:02:20;45.63;;;15.50;;
5121;SDS011;2563;52.242;7.956;2024-03-07T09:04:45;34.00;;;14.30;;
5121;SDS011;2563;52.242;7.956;2024-03-07T09:07:11;34.57;;;13.50;;
5121;SDS011;2563;52.242;7.956;2024-03-07T09:09:39;33.63;;;13.30;;
5121;SDS011;2563;52.242;7.956;2024-03-07T09:12:05;33.10;;;14.17;;
5121;SDS011;2563;52.242;7.956;2024-03-07T09:14:31;38.53;;;15.70;;
5121;SDS011;2563;52.242;7.956;2024-03-07T09:16:56;37.93;;;13.83;;
5121;SDS011;2563;52.242;7.956;2024-03-07T09:19:22;40.33;;;15.10;;
5121;SDS011;2563;52.242;7.956;2024-03-07T09:21:51;41.97;;;15.33;;
5121;SDS011;2563;52.242;7.956;2024-03-07T09:24:17;45.97;;;15.90;;
5121;SDS011;2563;52.242;7.956;2024-03-07T09:26:46;38.67;;;14.77;;
5121;SDS011;2563;52.242;7.956;2024-03-07T09:29:13;37.67;;;14.57;;
5121;SDS011;2563;52.242;7.956;2024-03-07T09:31:38;38.73;;;16.23;;
5121;SDS011;2563;52.242;7.956;2024-03-07T09:34:05;42.40;;;15.40;;
5121;SDS011;2563;52.242;7.956;2024-03-07T09:36:30;35.43;;;14.20;;
5121;SDS011;2563;52.242;7.956;2024-03-07T09:38:56;38.20;;;14.70;;
5121;SDS011;2563;52.242;7.956;2024-03-07T09:41:22;37.30;;;14.40;;
5121;SDS011;2563;52.242;7.956;2024-03-07T09:43:51;36.33;;;13.97;;
5121;SDS011;2563;52.242;7.956;2024-03-07T09:46:19;29.40;;;12.90;;
5121;SDS011;2563;52.242;7.956;2024-03-07T09:48:49;44.77;;;13.67;;
5121;SDS011;2563;52.242;7.956;2024-03-07T09:51:19;42.37;;;13.87;;
5121;SDS011;2563;52.242;7.956;2024-03-07T09:53:46;42.53;;;14.97;;
5121;SDS011;2563;52.242;7.956;2024-03-07T09:56:14;36.57;;;14.13;;
5121;SDS011;2563;52.242;7.956;2024-03-07T09:58:44;31.80;;;13.30;;
5121;SDS011;2563;52.242;7.956;2024-03-07T10:01:14;36.73;;;14.57;;
5121;SDS011;2563;52.242;7.956;2024-03-07T10:03:40;41.37;;;15.27;;
5121;SDS011;2563;52.242;7.956;2024-03-07T10:06:10;39.47;;;14.90;;
5121;SDS011;2563;52.242;7.956;2024-03-07T10:08:36;42.10;;;15.07;;
5121;SDS011;2563;52.242;7.956;2024-03-07T10:11:01;40.83;;;14.70;;
5121;SDS011;2563;52.242;7.956;2024-03-07T10:13:27;44.13;;;14.03;;
5121;SDS011;2563;52.242;7.956;2024-03-07T10:15:53;35.17;;;13.67;;
5121;SDS011;2563;52.242;7.956;2024-03-07T10:18:24;36.83;;;14.70;;
5121;SDS011;2563;52.242;7.956;2024-03-07T10:20:53;33.77;;;13.13;;
5121;SDS011;2563;52.242;7.956;2024-03-07T10:23:20;37.80;;;13.80;;
5121;SDS011;2563;52.242;7.956;2024-03-07T10:25:46;41.47;;;14.50;;
5121;SDS011;2563;52.242;7.956;2024-03-07T10:28:12;32.23;;;13.30;;
5121;SDS011;2563;52.242;7.956;2024-03-07T10:30:40;41.33;;;16.03;;
5121;SDS011;2563;52.242;7.956;2024-03-07T10:33:06;39.67;;;15.20;;
5121;SDS011;2563;52.242;7.956;2024-03-07T10:35:32;36.57;;;14.10;;
5121;SDS011;2563;52.242;7.956;2024-03-07T10:37:58;39.97;;;15.57;;
5121;SDS011;2563;52.242;7.956;2024-03-07T10:40:31;38.90;;;14.60;;
5121;SDS011;2563;52.242;7.956;2024-03-07T10:42:57;36.10;;;15.67;;
5121;SDS011;2563;52.242;7.956;2024-03-07T10:45:28;41.33;;;14.33;;
5121;SDS011;2563;52.242;7.956;2024-03-07T10:47:58;38.47;;;15.17;;
5121;SDS011;2563;52.242;7.956;2024-03-07T10:56:21;38.93;;;15.40;;
5121;SDS011;2563;52.242;7.956;2024-03-07T10:59:13;44.83;;;15.93;;
5121;SDS011;2563;52.242;7.956;2024-03-07T11:01:45;42.93;;;15.73;;
5121;SDS011;2563;52.242;7.956;2024-03-07T11:04:19;37.80;;;15.03;;
5121;SDS011;2563;52.242;7.956;2024-03-07T11:06:47;43.23;;;17.80;;
5121;SDS011;2563;52.242;7.956;2024-03-07T11:09:14;46.50;;;18.60;;
5121;SDS011;2563;52.242;7.956;2024-03-07T11:11:48;40.33;;;17.77;;
5121;SDS011;2563;52.242;7.956;2024-03-07T11:14:13;46.33;;;15.67;;
5121;SDS011;2563;52.242;7.956;2024-03-07T11:16:41;46.00;;;17.60;;
5121;SDS011;2563;52.242;7.956;2024-03-07T11:21:49;49.70;;;17.80;;
5121;SDS011;2563;52.242;7.956;2024-03-07T11:24:30;42.60;;;15.90;;
5121;SDS011;2563;52.242;7.956;2024-03-07T11:27:04;40.80;;;14.40;;
5121;SDS011;2563;52.242;7.956;2024-03-07T11:32:10;36.17;;;13.60;;
5121;SDS011;2563;52.242;7.956;2024-03-07T11:34:43;42.43;;;15.63;;
5121;SDS011;2563;52.242;7.956;2024-03-07T11:37:19;41.47;;;15.60;;
5121;SDS011;2563;52.242;7.956;2024-03-07T11:40:01;38.27;;;14.70;;
5121;SDS011;2563;52.242;7.956;2024-03-07T11:42:33;38.63;;;15.27;;
5121;SDS011;2563;52.242;7.956;2024-03-07T11:45:00;38.43;;;14.67;;
5121;SDS011;2563;52.242;7.956;2024-03-07T11:47:34;35.63;;;13.60;;
5121;SDS011;2563;52.242;7.956;2024-03-07T11:50:04;38.53;;;15.80;;
5121;SDS011;2563;52.242;7.956;2024-03-07T11:52:36;42.13;;;17.03;;
5121;SDS011;2563;52.242;7.956;2024-03-07T11:55:04;39.10;;;15.53;;
5121;SDS011;2563;52.242;7.956;2024-03-07T11:57:29;40.13;;;15.27;;
5121;SDS011;2563;52.242;7.956;2024-03-07T11:59:58;43.23;;;15.80;;
5121;SDS011;2563;52.242;7.956;2024-03-07T12:02:26;42.87;;;16.10;;
5121;SDS011;2563;52.242;7.956;2024-03-07T12:04:52;35.40;;;14.53;;
5121;SDS011;2563;52.242;7.956;2024-03-07T12:07:18;38.67;;;15.67;;
5121;SDS011;2563;52.242;7.956;2024-03-07T12:09:44;35.60;;;13.70;;
5121;SDS011;2563;52.242;7.956;2024-03-07T12:12:15;37.63;;;14.27;;
5121;SDS011;2563;52.242;7.956;2024-03-07T12:14:42;37.27;;;15.47;;
5121;SDS011;2563;52.242;7.956;2024-03-07T12:17:08;33.03;;;14.30;;
5121;SDS011;2563;52.242;7.956;2024-03-07T12:19:34;40.23;;;15.90;;
5121;SDS011;2563;52.242;7.956;2024-03-07T12:22:03;37.40;;;15.53;;
5121;SDS011;2563;52.242;7.956;2024-03-07T12:24:29;38.37;;;15.30;;
5121;SDS011;2563;52.242;7.956;2024-03-07T12:27:04;38.43;;;15.60;;
5121;SDS011;2563;52.242;7.956;2024-03-07T12:29:31;35.33;;;14.37;;
5121;SDS011;2563;52.242;7.956;2024-03-07T12:31:58;37.67;;;14.17;;
5121;SDS011;2563;52.242;7.956;2024-03-07T12:34:24;37.53;;;15.00;;
5121;SDS011;2563;52.242;7.956;2024-03-07T12:36:51;36.60;;;14.03;;
5121;SDS011;2563;52.242;7.956;2024-03-07T12:39:24;37.30;;;15.60;;
5121;SDS011;2563;52.242;7.956;2024-03-07T12:41:51;38.57;;;14.73;;
5121;SDS011;2563;52.242;7.956;2024-03-07T12:44:21;38.33;;;15.57;;
5121;SDS011;2563;52.242;7.956;2024-03-07T12:46:53;45.13;;;15.23;;
5121;SDS011;2563;52.242;7.956;2024-03-07T12:49:21;42.73;;;15.23;;
5121;SDS011;2563;52.242;7.956;2024-03-07T12:51:51;49.37;;;18.23;;
5121;SDS011;2563;52.242;7.956;2024-03-07T12:54:18;46.07;;;15.83;;
5121;SDS011;2563;52.242;7.956;2024-03-07T12:56:44;38.13;;;14.87;;
5121;SDS011;2563;52.242;7.956;2024-03-07T12:59:09;42.70;;;16.33;;
5121;SDS011;2563;52.242;7.956;2024-03-07T13:01:35;42.23;;;16.20;;
5121;SDS011;2563;52.242;7.956;2024-03-07T13:04:05;47.87;;;16.77;;
5121;SDS011;2563;52.242;7.956;2024-03-07T13:06:33;45.30;;;17.53;;
5121;SDS011;2563;52.242;7.956;2024-03-07T13:08:59;59.47;;;16.20;;
5121;SDS011;2563;52.242;7.956;2024-03-07T13:11:25;37.10;;;15.03;;
5121;SDS011;2563;52.242;7.956;2024-03-07T13:13:55;47.10;;;16.60;;
5121;SDS011;2563;52.242;7.956;2024-03-07T13:16:21;47.33;;;15.27;;
5121;SDS011;2563;52.242;7.956;2024-03-07T13:18:52;46.30;;;16.33;;
5121;SDS011;2563;52.242;7.956;2024-03-07T13:21:19;49.80;;;17.77;;
5121;SDS011;2563;52.242;7.956;2024-03-07T13:23:45;41.40;;;15.87;;
5121;SDS011;2563;52.242;7.956;2024-03-07T13:26:11;48.03;;;16.33;;
5121;SDS011;2563;52.242;7.956;2024-03-07T13:28:42;44.47;;;16.70;;
5121;SDS011;2563;52.242;7.956;2024-03-07T13:31:09;45.53;;;15.20;;
5121;SDS011;2563;52.242;7.956;2024-03-07T13:33:36;49.80;;;17.50;;
5121;SDS011;2563;52.242;7.956;2024-03-07T13:36:02;41.47;;;15.73;;
5121;SDS011;2563;52.242;7.956;2024-03-07T13:38:29;44.83;;;16.53;;
5121;SDS011;2563;52.242;7.956;2024-03-07T13:40:54;50.90;;;17.63;;
5121;SDS011;2563;52.242;7.956;2024-03-07T13:43:22;43.03;;;16.57;;
5121;SDS011;2563;52.242;7.956;2024-03-07T13:45:47;51.33;;;19.10;;
5121;SDS011;2563;52.242;7.956;2024-03-07T13:48:13;44.67;;;15.90;;
5121;SDS011;2563;52.242;7.956;2024-03-07T13:50:41;45.60;;;18.00;;
5121;SDS011;2563;52.242;7.956;2024-03-07T13:53:09;45.63;;;17.17;;
5121;SDS011;2563;52.242;7.956;2024-03-07T14:14:44;34.60;;;15.07;;
5121;SDS011;2563;52.242;7.956;2024-03-07T14:26:35;33.50;;;13.43;;
5121;SDS011;2563;52.242;7.956;2024-03-07T14:29:12;37.00;;;14.40;;
5121;SDS011;2563;52.242;7.956;2024-03-07T14:31:42;35.00;;;13.87;;
5121;SDS011;2563;52.242;7.956;2024-03-07T14:34:16;35.90;;;12.23;;
5121;SDS011;2563;52.242;7.956;2024-03-07T14:36:57;32.93;;;13.30;;
5121;SDS011;2563;52.242;7.956;2024-03-07T14:39:34;35.57;;;12.57;;
5121;SDS011;2563;52.242;7.956;2024-03-07T14:42:02;35.60;;;12.50;;
5121;SDS011;2563;52.242;7.956;2024-03-07T14:44:34;32.80;;;11.80;;
5121;SDS011;2563;52.242;7.956;2024-03-07T14:47:03;33.30;;;13.23;;
5121;SDS011;2563;52.242;7.956;2024-03-07T14:49:32;33.90;;;11.93;;
5121;SDS011;2563;52.242;7.956;2024-03-07T14:51:58;30.17;;;12.00;;
5121;SDS011;2563;52.242;7.956;2024-03-07T14:54:24;35.53;;;13.80;;
5121;SDS011;2563;52.242;7.956;2024-03-07T14:56:50;32.23;;;12.60;;
5121;SDS011;2563;52.242;7.956;2024-03-07T14:59:15;34.53;;;13.80;;
5121;SDS011;2563;52.242;7.956;2024-03-07T15:01:43;27.00;;;11.63;;
5121;SDS011;2563;52.242;7.956;2024-03-07T15:04:08;30.60;;;12.30;;
5121;SDS011;2563;52.242;7.956;2024-03-07T15:06:36;29.60;;;12.50;;
5121;SDS011;2563;52.242;7.956;2024-03-07T15:09:03;27.03;;;11.70;;
5121;SDS011;2563;52.242;7.956;2024-03-07T15:14:05;34.93;;;12.60;;
5121;SDS011;2563;52.242;7.956;2024-03-07T15:16:33;32.83;;;13.87;;
5121;SDS011;2563;52.242;7.956;2024-03-07T15:19:02;34.80;;;11.70;;
5121;SDS011;2563;52.242;7.956;2024-03-07T15:21:32;34.77;;;13.60;;
5121;SDS011;2563;52.242;7.956;2024-03-07T15:23:58;37.23;;;13.70;;
5121;SDS011;2563;52.242;7.956;2024-03-07T15:26:23;32.33;;;11.30;;
5121;SDS011;2563;52.242;7.956;2024-03-07T15:28:50;33.13;;;13.67;;
5121;SDS011;2563;52.242;7.956;2024-03-07T15:31:16;40.37;;;14.87;;